Time;durP1;ratioP1;P1;durP2;ratioP2;P2;SDS_P1;SDS_P2;PMS_P1;PMS_P2;Temp;Humidity;BMP_temperature;BMP_pressure;BME280_temperature;BME280_humidity;BME280_pressure;Samples;Min_cycle;Max_cycle;Signal;HPM_P1;HPM_P2
2023/07/03 00:00:12;;;;;;;6.47;1.83;;;;;;;;;;5029149;28;20488;-74
2023/07/03 00:02:42;;;;;;;5.15;1.95;;;;;;;;;;5025043;28;20326;-74
2023/07/03 00:05:09;;;;;;;7.18;1.80;;;;;;;;;;5019397;28;20017;-74
2023/07/03 00:07:36;;;;;;;3.97;1.65;;;;;;;;;;5023787;28;20167;-74
2023/07/03 00:10:04;;;;;;;9.48;2.53;;;;;;;;;;5015222;28;20105;-74
2023/07/03 00:12:30;;;;;;;8.10;1.90;;;;;;;;;;5015197;28;20022;-73
2023/07/03 00:14:56;;;;;;;8.20;1.65;;;;;;;;;;5014954;28;20112;-73
2023/07/03 00:17:22;;;;;;;7.45;1.58;;;;;;;;;;5026510;28;20130;-73
2023/07/03 00:19:48;;;;;;;7.13;1.90;;;;;;;;;;5034677;28;20448;-74
2023/07/03 00:22:14;;;;;;;6.72;1.75;;;;;;;;;;5034518;28;20032;-73
2023/07/03 00:24:40;;;;;;;5.70;1.65;;;;;;;;;;5016188;28;20027;-73
2023/07/03 00:27:06;;;;;;;8.05;1.98;;;;;;;;;;5014535;28;20084;-74
2023/07/03 00:29:33;;;;;;;7.78;1.73;;;;;;;;;;5014478;28;20034;-73
2023/07/03 00:32:00;;;;;;;3.30;1.23;;;;;;;;;;5014452;28;20160;-74
2023/07/03 00:34:26;;;;;;;7.95;1.60;;;;;;;;;;5007682;28;20375;-74
2023/07/03 00:36:53;;;;;;;7.70;1.42;;;;;;;;;;5019782;28;20032;-74
2023/07/03 00:39:19;;;;;;;8.10;1.60;;;;;;;;;;5028565;28;20018;-73
2023/07/03 00:41:45;;;;;;;8.10;1.67;;;;;;;;;;5014392;28;20026;-73
2023/07/03 00:44:12;;;;;;;5.60;1.60;;;;;;;;;;5033592;28;20032;-73
2023/07/03 00:46:39;;;;;;;10.77;1.58;;;;;;;;;;5034072;28;20025;-73
2023/07/03 00:49:07;;;;;;;9.10;2.05;;;;;;;;;;5033390;28;20018;-74
2023/07/03 00:51:33;;;;;;;7.15;1.40;;;;;;;;;;5033895;28;20075;-73
2023/07/03 00:54:05;;;;;;;6.97;1.52;;;;;;;;;;5027320;28;20464;-73
2023/07/03 00:56:31;;;;;;;9.20;1.65;;;;;;;;;;5013593;28;20022;-73
2023/07/03 00:58:57;;;;;;;8.18;2.67;;;;;;;;;;5012909;28;20712;-74
2023/07/03 01:01:23;;;;;;;7.35;1.40;;;;;;;;;;5026280;28;20017;-73
2023/07/03 01:03:52;;;;;;;8.88;1.35;;;;;;;;;;5013687;28;20028;-73
2023/07/03 01:06:20;;;;;;;8.25;1.60;;;;;;;;;;5026936;28;20377;-73
2023/07/03 01:08:54;;;;;;;6.20;1.60;;;;;;;;;;5013869;28;20046;-74
2023/07/03 01:11:20;;;;;;;11.10;1.90;;;;;;;;;;5013806;28;20392;-73
2023/07/03 01:13:47;;;;;;;6.35;1.50;;;;;;;;;;5013947;28;20030;-74
2023/07/03 01:16:14;;;;;;;6.13;1.25;;;;;;;;;;5015651;28;20468;-73
2023/07/03 01:18:40;;;;;;;8.23;1.40;;;;;;;;;;5033505;28;20033;-73
2023/07/03 01:21:09;;;;;;;9.80;2.30;;;;;;;;;;5031466;28;20025;-74
2023/07/03 01:23:54;;;;;;;3.22;0.98;;;;;;;;;;5014111;28;20527;-74
2023/07/03 01:26:21;;;;;;;8.65;1.55;;;;;;;;;;5021313;28;20073;-73
2023/07/03 01:28:48;;;;;;;6.22;1.42;;;;;;;;;;5005505;28;20092;-74
2023/07/03 01:31:15;;;;;;;7.07;1.45;;;;;;;;;;5031655;28;20021;-73
2023/07/03 01:33:45;;;;;;;4.63;1.33;;;;;;;;;;5033267;28;20054;-73
2023/07/03 01:36:12;;;;;;;5.65;1.23;;;;;;;;;;5014987;28;20076;-73
2023/07/03 01:38:43;;;;;;;11.55;2.28;;;;;;;;;;5014643;28;20029;-73
2023/07/03 01:41:11;;;;;;;9.40;2.08;;;;;;;;;;5005871;28;20034;-73
2023/07/03 01:43:38;;;;;;;9.30;1.80;;;;;;;;;;5004161;28;20053;-73
2023/07/03 01:46:04;;;;;;;12.32;1.85;;;;;;;;;;5032993;28;20363;-74
2023/07/03 01:48:33;;;;;;;10.45;1.35;;;;;;;;;;5032729;28;20040;-73
2023/07/03 01:50:59;;;;;;;5.60;1.15;;;;;;;;;;5025542;28;20030;-73
2023/07/03 01:53:31;;;;;;;13.73;1.63;;;;;;;;;;5004287;28;20044;-73
2023/07/03 01:55:59;;;;;;;6.30;1.35;;;;;;;;;;5027421;28;20101;-74
2023/07/03 01:58:35;;;;;;;8.77;1.75;;;;;;;;;;5031466;28;20120;-73
2023/07/03 02:01:06;;;;;;;7.07;1.52;;;;;;;;;;4992616;28;20034;-73
2023/07/03 02:03:40;;;;;;;3.85;1.10;;;;;;;;;;5023328;28;20475;-74
2023/07/03 02:06:09;;;;;;;5.38;1.30;;;;;;;;;;5023650;28;20014;-73
2023/07/03 02:08:36;;;;;;;8.15;2.22;;;;;;;;;;5012770;28;20088;-73
2023/07/03 02:11:02;;;;;;;7.28;1.45;;;;;;;;;;5012992;28;20026;-73
2023/07/03 02:13:28;;;;;;;9.10;2.03;;;;;;;;;;5026469;28;20100;-73
2023/07/03 02:15:54;;;;;;;6.68;1.20;;;;;;;;;;5032516;28;20029;-73
2023/07/03 02:18:20;;;;;;;10.15;1.63;;;;;;;;;;5032447;28;20029;-73
2023/07/03 02:20:49;;;;;;;8.50;1.58;;;;;;;;;;5032777;28;20051;-73
2023/07/03 02:23:15;;;;;;;8.70;1.67;;;;;;;;;;5019516;28;20014;-73
2023/07/03 02:25:41;;;;;;;6.90;2.03;;;;;;;;;;5018856;28;20025;-73
2023/07/03 02:28:07;;;;;;;8.82;1.50;;;;;;;;;;5019555;28;20068;-73
2023/07/03 02:30:33;;;;;;;7.63;1.73;;;;;;;;;;5032169;28;20069;-73
2023/07/03 02:32:59;;;;;;;5.90;1.50;;;;;;;;;;5019659;28;20483;-73
2023/07/03 02:35:25;;;;;;;8.70;1.67;;;;;;;;;;5031330;28;20108;-73
2023/07/03 02:37:51;;;;;;;7.38;1.40;;;;;;;;;;5032254;28;20083;-73
2023/07/03 02:40:17;;;;;;;9.30;1.90;;;;;;;;;;5031809;28;20040;-73
2023/07/03 02:42:43;;;;;;;8.43;1.50;;;;;;;;;;5025111;28;20029;-73
2023/07/03 02:45:09;;;;;;;7.93;1.50;;;;;;;;;;5012419;28;20032;-73
2023/07/03 02:47:36;;;;;;;8.05;1.85;;;;;;;;;;5019680;28;20040;-73
2023/07/03 02:50:03;;;;;;;8.95;1.58;;;;;;;;;;5018804;28;20392;-73
2023/07/03 02:52:29;;;;;;;6.25;1.48;;;;;;;;;;5032059;28;20026;-73
2023/07/03 02:54:55;;;;;;;6.75;1.60;;;;;;;;;;5018543;28;20033;-73
2023/07/03 02:57:21;;;;;;;3.53;1.20;;;;;;;;;;5012412;28;20030;-73
2023/07/03 02:59:47;;;;;;;9.65;1.85;;;;;;;;;;5011621;28;20058;-73
2023/07/03 03:02:13;;;;;;;6.97;1.80;;;;;;;;;;4992703;28;20085;-73
2023/07/03 03:04:39;;;;;;;10.15;1.98;;;;;;;;;;4992697;28;20085;-73
2023/07/03 03:07:05;;;;;;;7.88;1.48;;;;;;;;;;5005823;28;20033;-73
2023/07/03 03:09:31;;;;;;;7.75;1.60;;;;;;;;;;5018927;28;20105;-73
2023/07/03 03:11:58;;;;;;;10.65;2.03;;;;;;;;;;5013416;28;20053;-73
2023/07/03 03:14:24;;;;;;;8.45;1.27;;;;;;;;;;5016428;28;20024;-73
2023/07/03 03:16:50;;;;;;;10.23;1.60;;;;;;;;;;5035454;28;20112;-73
2023/07/03 03:19:16;;;;;;;6.85;1.90;;;;;;;;;;5021373;28;20055;-73
2023/07/03 03:21:43;;;;;;;7.88;1.50;;;;;;;;;;4996494;28;20036;-74
2023/07/03 03:24:09;;;;;;;10.00;1.92;;;;;;;;;;5023207;28;20018;-74
2023/07/03 03:26:35;;;;;;;7.00;1.58;;;;;;;;;;5014421;28;20111;-74
2023/07/03 03:29:02;;;;;;;7.28;1.83;;;;;;;;;;5016817;28;20030;-73
2023/07/03 03:31:28;;;;;;;7.05;1.70;;;;;;;;;;5035148;28;20163;-74
2023/07/03 03:33:54;;;;;;;10.00;1.70;;;;;;;;;;5035417;28;20108;-74
2023/07/03 03:36:20;;;;;;;8.57;2.13;;;;;;;;;;5035410;28;20048;-74
2023/07/03 03:38:46;;;;;;;9.75;1.83;;;;;;;;;;5035739;28;20397;-73
2023/07/03 03:41:12;;;;;;;9.85;1.80;;;;;;;;;;5035321;28;20559;-74
2023/07/03 03:43:38;;;;;;;6.60;1.50;;;;;;;;;;5033180;28;20032;-74
2023/07/03 03:46:04;;;;;;;6.57;1.52;;;;;;;;;;5012131;28;20103;-74
2023/07/03 03:48:31;;;;;;;7.43;1.42;;;;;;;;;;5034187;28;20069;-74
2023/07/03 03:50:57;;;;;;;5.90;1.40;;;;;;;;;;5026869;28;20498;-74
2023/07/03 03:53:23;;;;;;;7.45;1.90;;;;;;;;;;5014058;28;20108;-74
2023/07/03 03:55:50;;;;;;;8.68;1.77;;;;;;;;;;5015310;28;20022;-73
2023/07/03 03:58:17;;;;;;;9.20;2.42;;;;;;;;;;5015230;28;20057;-74
2023/07/03 04:00:43;;;;;;;8.15;1.98;;;;;;;;;;5013998;28;20040;-74
2023/07/03 04:03:09;;;;;;;7.70;1.70;;;;;;;;;;5015145;28;20033;-74
2023/07/03 04:05:36;;;;;;;11.88;2.10;;;;;;;;;;5022716;28;20079;-74
2023/07/03 04:08:02;;;;;;;11.35;1.90;;;;;;;;;;5020238;28;20484;-74
2023/07/03 04:10:28;;;;;;;6.13;1.42;;;;;;;;;;5014992;28;20033;-74
2023/07/03 04:12:54;;;;;;;8.95;1.70;;;;;;;;;;5028799;28;20068;-74
2023/07/03 04:15:22;;;;;;;11.45;1.92;;;;;;;;;;5027397;28;20403;-74
2023/07/03 04:17:48;;;;;;;12.00;2.85;;;;;;;;;;5016309;28;20104;-74
2023/07/03 04:20:14;;;;;;;10.07;1.63;;;;;;;;;;5034976;28;20457;-73
2023/07/03 04:22:40;;;;;;;10.30;1.60;;;;;;;;;;5031722;28;20029;-74
2023/07/03 04:25:07;;;;;;;9.02;2.00;;;;;;;;;;5002166;28;20018;-74
2023/07/03 04:27:33;;;;;;;10.20;2.10;;;;;;;;;;5027588;28;20033;-74
2023/07/03 04:29:59;;;;;;;13.32;2.35;;;;;;;;;;5014492;28;20515;-74
2023/07/03 04:32:25;;;;;;;5.05;1.40;;;;;;;;;;5018673;28;20013;-74
2023/07/03 04:34:52;;;;;;;9.95;2.13;;;;;;;;;;5019622;28;20077;-74
2023/07/03 04:37:18;;;;;;;10.52;2.00;;;;;;;;;;5014311;28;20033;-74
2023/07/03 04:39:44;;;;;;;8.73;1.77;;;;;;;;;;5014464;28;20033;-73
2023/07/03 04:42:13;;;;;;;7.47;1.33;;;;;;;;;;5014363;28;20457;-74
2023/07/03 04:44:41;;;;;;;5.37;1.20;;;;;;;;;;5014824;28;20017;-74
2023/07/03 04:47:08;;;;;;;6.57;1.20;;;;;;;;;;5018951;28;20045;-74
2023/07/03 04:49:34;;;;;;;8.70;1.35;;;;;;;;;;5022423;28;20088;-73
2023/07/03 04:52:00;;;;;;;6.57;1.20;;;;;;;;;;5032013;28;20103;-74
2023/07/03 04:54:30;;;;;;;8.95;1.70;;;;;;;;;;5026064;28;20475;-73
2023/07/03 04:56:56;;;;;;;8.82;1.25;;;;;;;;;;5012002;28;20028;-74
2023/07/03 04:59:23;;;;;;;5.82;1.42;;;;;;;;;;5002444;28;20495;-74
2023/07/03 05:01:49;;;;;;;4.32;0.95;;;;;;;;;;4999355;28;20026;-74
2023/07/03 05:04:15;;;;;;;4.47;1.15;;;;;;;;;;5033605;28;20108;-74
2023/07/03 05:06:41;;;;;;;8.57;1.45;;;;;;;;;;5030084;28;20112;-74
2023/07/03 05:09:08;;;;;;;9.60;1.30;;;;;;;;;;5013917;28;20035;-74
2023/07/03 05:11:34;;;;;;;4.30;0.95;;;;;;;;;;5014118;28;20100;-74
2023/07/03 05:14:00;;;;;;;5.72;1.10;;;;;;;;;;5000693;28;20054;-74
2023/07/03 05:16:26;;;;;;;6.78;1.20;;;;;;;;;;5013815;28;20026;-74
2023/07/03 05:18:53;;;;;;;6.38;1.52;;;;;;;;;;5026909;28;20431;-74
2023/07/03 05:21:19;;;;;;;9.40;1.30;;;;;;;;;;5012294;28;20018;-74
2023/07/03 05:23:45;;;;;;;7.85;1.42;;;;;;;;;;5015647;28;20057;-74
2023/07/03 05:26:11;;;;;;;7.85;1.27;;;;;;;;;;5033319;28;20060;-74
2023/07/03 05:28:37;;;;;;;7.88;1.20;;;;;;;;;;5029399;28;20399;-74
2023/07/03 05:31:04;;;;;;;6.63;1.27;;;;;;;;;;5022309;28;20017;-74
2023/07/03 05:33:30;;;;;;;3.97;1.05;;;;;;;;;;5030041;28;20021;-74
2023/07/03 05:35:59;;;;;;;8.60;1.65;;;;;;;;;;5021759;28;20029;-74
2023/07/03 05:38:25;;;;;;;7.75;1.50;;;;;;;;;;5030370;28;20113;-74
2023/07/03 05:40:51;;;;;;;8.02;1.75;;;;;;;;;;5013260;28;20105;-74
2023/07/03 05:43:17;;;;;;;8.40;2.03;;;;;;;;;;5013405;28;20030;-74
2023/07/03 05:45:43;;;;;;;11.13;1.85;;;;;;;;;;5013205;28;20076;-74
2023/07/03 05:48:09;;;;;;;6.82;1.55;;;;;;;;;;5028249;28;20369;-74
2023/07/03 05:50:35;;;;;;;7.47;1.42;;;;;;;;;;5015399;28;20462;-74
2023/07/03 05:53:02;;;;;;;6.85;1.55;;;;;;;;;;5008665;28;20037;-74
2023/07/03 05:55:29;;;;;;;8.23;1.50;;;;;;;;;;5013212;28;20022;-74
2023/07/03 05:57:55;;;;;;;8.48;1.20;;;;;;;;;;5015185;28;20057;-74
2023/07/03 06:00:21;;;;;;;5.47;1.10;;;;;;;;;;5021286;28;20086;-74
2023/07/03 06:02:51;;;;;;;7.38;1.00;;;;;;;;;;5013037;28;20495;-74
2023/07/03 06:05:18;;;;;;;4.60;0.93;;;;;;;;;;5013261;28;20084;-74
2023/07/03 06:07:44;;;;;;;2.85;0.80;;;;;;;;;;5012806;28;20117;-74
2023/07/03 06:10:11;;;;;;;2.67;1.00;;;;;;;;;;5012831;28;20088;-75
2023/07/03 06:12:37;;;;;;;5.53;1.10;;;;;;;;;;5012958;28;20022;-75
2023/07/03 06:15:04;;;;;;;3.97;1.10;;;;;;;;;;5012637;28;20025;-75
2023/07/03 06:17:31;;;;;;;4.65;1.05;;;;;;;;;;5016109;28;20571;-74
2023/07/03 06:19:57;;;;;;;5.47;0.95;;;;;;;;;;5027411;28;20026;-74
2023/07/03 06:22:23;;;;;;;3.75;1.08;;;;;;;;;;5006578;28;20515;-74
2023/07/03 06:24:49;;;;;;;2.53;0.98;;;;;;;;;;5012759;28;20029;-74
2023/07/03 06:27:15;;;;;;;3.88;1.10;;;;;;;;;;5012829;28;20038;-75
2023/07/03 06:29:42;;;;;;;3.53;0.80;;;;;;;;;;5022643;28;20032;-75
2023/07/03 06:32:09;;;;;;;4.90;1.20;;;;;;;;;;5032162;28;20030;-74
2023/07/03 06:34:35;;;;;;;6.00;1.25;;;;;;;;;;5026647;28;20033;-74
2023/07/03 06:37:02;;;;;;;9.85;1.63;;;;;;;;;;4999504;28;20030;-75
2023/07/03 06:39:28;;;;;;;7.93;1.30;;;;;;;;;;5020778;28;20352;-74
2023/07/03 06:41:54;;;;;;;5.35;1.20;;;;;;;;;;5012636;28;20030;-74
2023/07/03 06:44:21;;;;;;;8.07;1.30;;;;;;;;;;5024556;28;20079;-74
2023/07/03 06:46:48;;;;;;;6.28;1.55;;;;;;;;;;5028556;28;20029;-75
2023/07/03 06:49:14;;;;;;;6.10;1.48;;;;;;;;;;5016793;28;20022;-75
2023/07/03 06:51:40;;;;;;;6.07;1.25;;;;;;;;;;5016203;28;20416;-75
2023/07/03 06:54:06;;;;;;;4.13;0.93;;;;;;;;;;5027541;28;20033;-75
2023/07/03 06:56:32;;;;;;;5.10;1.20;;;;;;;;;;5003176;28;20469;-74
2023/07/03 06:58:58;;;;;;;4.13;0.90;;;;;;;;;;5026437;28;20049;-74
2023/07/03 07:01:26;;;;;;;5.55;1.30;;;;;;;;;;5018100;28;20026;-75
2023/07/03 07:03:52;;;;;;;4.05;1.02;;;;;;;;;;5016303;28;20072;-75
2023/07/03 07:06:20;;;;;;;4.70;0.93;;;;;;;;;;5031846;28;20030;-75
2023/07/03 07:08:46;;;;;;;3.28;0.77;;;;;;;;;;5027930;28;20034;-74
2023/07/03 07:11:13;;;;;;;4.63;1.00;;;;;;;;;;5007457;28;20536;-75
2023/07/03 07:13:40;;;;;;;3.40;1.08;;;;;;;;;;5015898;28;20030;-75
2023/07/03 07:16:11;;;;;;;3.15;0.68;;;;;;;;;;5017373;28;20076;-75
2023/07/03 07:18:37;;;;;;;4.15;0.88;;;;;;;;;;5022768;28;20442;-75
2023/07/03 07:21:03;;;;;;;2.55;0.90;;;;;;;;;;5018818;28;20030;-75
2023/07/03 07:23:29;;;;;;;4.88;0.90;;;;;;;;;;4996325;28;20049;-75
2023/07/03 07:25:55;;;;;;;3.78;1.20;;;;;;;;;;4999686;28;20018;-75
2023/07/03 07:28:21;;;;;;;4.28;0.95;;;;;;;;;;5029410;28;20029;-75
2023/07/03 07:30:48;;;;;;;5.55;1.10;;;;;;;;;;5035160;28;20112;-75
2023/07/03 07:33:15;;;;;;;4.57;0.93;;;;;;;;;;5025649;28;20115;-75
2023/07/03 07:35:41;;;;;;;3.75;1.30;;;;;;;;;;5012630;28;20034;-75
2023/07/03 07:38:07;;;;;;;6.85;0.90;;;;;;;;;;4996452;28;20485;-75
2023/07/03 07:40:33;;;;;;;5.80;1.10;;;;;;;;;;5015428;28;20109;-75
2023/07/03 07:42:59;;;;;;;4.88;1.30;;;;;;;;;;5016573;28;20100;-75
2023/07/03 07:45:25;;;;;;;3.15;0.90;;;;;;;;;;5024108;28;20022;-75
2023/07/03 07:47:52;;;;;;;4.97;1.20;;;;;;;;;;5015233;28;20372;-75
2023/07/03 07:50:18;;;;;;;4.50;1.00;;;;;;;;;;5021844;28;20029;-75
2023/07/03 07:52:44;;;;;;;6.00;1.48;;;;;;;;;;5035041;28;20028;-75
2023/07/03 07:55:10;;;;;;;5.18;1.20;;;;;;;;;;5034971;28;20469;-75
2023/07/03 07:57:36;;;;;;;5.72;1.00;;;;;;;;;;5021478;28;20113;-75
2023/07/03 08:00:03;;;;;;;6.15;1.13;;;;;;;;;;5020256;28;20120;-75
2023/07/03 08:02:29;;;;;;;7.82;1.23;;;;;;;;;;5025017;28;20364;-75
2023/07/03 08:04:56;;;;;;;2.15;0.98;;;;;;;;;;5021050;28;20033;-75
2023/07/03 08:07:22;;;;;;;5.60;1.20;;;;;;;;;;5029893;28;20044;-75
2023/07/03 08:09:49;;;;;;;5.28;1.00;;;;;;;;;;5027488;28;20416;-75
2023/07/03 08:12:15;;;;;;;4.32;1.05;;;;;;;;;;5014249;28;20032;-75
2023/07/03 08:14:41;;;;;;;4.18;0.82;;;;;;;;;;5025101;28;20058;-75
2023/07/03 08:17:07;;;;;;;3.08;1.10;;;;;;;;;;5027380;28;20087;-75
2023/07/03 08:19:33;;;;;;;3.28;1.08;;;;;;;;;;5014903;28;20030;-74
2023/07/03 08:21:59;;;;;;;4.80;0.93;;;;;;;;;;5027885;28;20071;-75
2023/07/03 08:24:25;;;;;;;2.67;0.70;;;;;;;;;;5014725;28;20025;-75
2023/07/03 08:26:53;;;;;;;6.22;0.95;;;;;;;;;;5029023;28;20438;-75
2023/07/03 08:29:19;;;;;;;4.30;1.00;;;;;;;;;;5014906;28;20149;-75
2023/07/03 08:31:45;;;;;;;3.42;0.85;;;;;;;;;;5027926;28;20033;-75
2023/07/03 08:34:12;;;;;;;4.10;1.00;;;;;;;;;;5022707;28;20025;-75
2023/07/03 08:36:38;;;;;;;3.72;1.15;;;;;;;;;;5020682;28;20026;-75
2023/07/03 08:39:04;;;;;;;6.22;1.08;;;;;;;;;;5034287;28;20116;-75
2023/07/03 08:41:39;;;;;;;3.58;0.90;;;;;;;;;;5019476;28;20428;-75
2023/07/03 08:44:05;;;;;;;3.80;0.95;;;;;;;;;;5014515;28;20391;-75
2023/07/03 08:46:32;;;;;;;8.43;1.00;;;;;;;;;;5027299;28;20080;-75
2023/07/03 08:49:03;;;;;;;6.80;1.10;;;;;;;;;;5014312;28;20045;-75
2023/07/03 08:51:30;;;;;;;4.15;1.10;;;;;;;;;;5014551;28;20026;-75
2023/07/03 08:53:59;;;;;;;6.85;1.08;;;;;;;;;;5004348;28;20085;-75
2023/07/03 08:56:29;;;;;;;5.20;0.90;;;;;;;;;;4994620;28;20022;-75
2023/07/03 08:58:56;;;;;;;6.72;1.27;;;;;;;;;;5004731;28;20041;-75
2023/07/03 09:01:46;;;;;;;2.88;0.90;;;;;;;;;;5013879;28;20084;-75
2023/07/03 09:04:25;;;;;;;6.72;1.13;;;;;;;;;;5027193;28;20087;-75
2023/07/03 09:07:12;;;;;;;4.88;0.90;;;;;;;;;;5014283;28;20361;-75
2023/07/03 09:10:01;;;;;;;3.33;0.82;;;;;;;;;;5032804;28;20033;-75
2023/07/03 09:12:31;;;;;;;3.10;0.88;;;;;;;;;;5011997;28;20038;-75
2023/07/03 09:15:04;;;;;;;5.60;0.85;;;;;;;;;;5013859;28;20025;-75
2023/07/03 09:17:30;;;;;;;5.90;1.20;;;;;;;;;;5013806;28;20029;-75
2023/07/03 09:19:58;;;;;;;6.80;1.15;;;;;;;;;;5024791;28;20109;-75
2023/07/03 09:22:45;;;;;;;7.05;1.50;;;;;;;;;;5015132;28;20401;-75
2023/07/03 09:25:21;;;;;;;4.05;1.08;;;;;;;;;;5013733;28;20057;-75
2023/07/03 09:27:50;;;;;;;4.22;1.23;;;;;;;;;;5013531;28;20034;-75
2023/07/03 09:30:16;;;;;;;4.05;0.95;;;;;;;;;;5029485;28;20043;-75
2023/07/03 09:32:42;;;;;;;4.90;1.17;;;;;;;;;;5032968;28;20456;-75
2023/07/03 09:35:15;;;;;;;5.03;1.05;;;;;;;;;;5033051;28;20041;-75
2023/07/03 09:37:48;;;;;;;5.53;1.27;;;;;;;;;;5033450;28;20107;-75
2023/07/03 09:40:34;;;;;;;6.88;0.90;;;;;;;;;;5033148;28;20052;-75
2023/07/03 09:43:01;;;;;;;4.05;0.90;;;;;;;;;;5031529;28;20100;-75
2023/07/03 09:45:33;;;;;;;6.78;1.10;;;;;;;;;;5020966;28;20030;-75
2023/07/03 09:48:00;;;;;;;3.53;0.90;;;;;;;;;;5018641;28;20464;-75
2023/07/03 09:50:28;;;;;;;6.15;1.42;;;;;;;;;;5013210;28;20021;-75
2023/07/03 09:52:57;;;;;;;5.35;1.55;;;;;;;;;;5014308;28;20030;-75
2023/07/03 09:55:24;;;;;;;3.55;1.27;;;;;;;;;;5032864;28;20034;-75
2023/07/03 09:57:50;;;;;;;3.33;0.88;;;;;;;;;;5032168;28;20057;-75
2023/07/03 10:00:17;;;;;;;3.92;1.25;;;;;;;;;;5022699;28;20453;-75
2023/07/03 10:02:43;;;;;;;6.47;1.58;;;;;;;;;;5014255;28;20033;-75
2023/07/03 10:05:16;;;;;;;4.68;1.13;;;;;;;;;;5024559;28;20488;-75
2023/07/03 10:07:44;;;;;;;5.82;1.27;;;;;;;;;;5015257;28;20033;-75
2023/07/03 10:10:12;;;;;;;4.20;1.00;;;;;;;;;;5032500;28;20100;-75
2023/07/03 10:12:48;;;;;;;4.00;1.20;;;;;;;;;;5016305;28;20733;-75
2023/07/03 10:15:22;;;;;;;2.50;0.93;;;;;;;;;;5011568;28;20057;-75
2023/07/03 10:17:53;;;;;;;6.53;0.95;;;;;;;;;;5013276;28;20034;-75
2023/07/03 10:20:24;;;;;;;3.05;1.10;;;;;;;;;;5012622;28;20033;-75
2023/07/03 10:22:52;;;;;;;3.83;1.05;;;;;;;;;;5012197;28;20394;-75
2023/07/03 10:25:21;;;;;;;6.28;1.27;;;;;;;;;;5000735;28;20029;-75
2023/07/03 10:27:49;;;;;;;4.03;0.90;;;;;;;;;;5023993;28;20053;-75
2023/07/03 10:30:18;;;;;;;3.00;0.90;;;;;;;;;;5025569;28;20030;-75
2023/07/03 10:32:46;;;;;;;2.97;0.70;;;;;;;;;;5012936;28;20021;-74
2023/07/03 10:35:30;;;;;;;4.13;0.85;;;;;;;;;;5012636;28;20030;-75
2023/07/03 10:37:59;;;;;;;3.88;1.05;;;;;;;;;;5012376;28;20369;-75
2023/07/03 10:40:41;;;;;;;4.63;0.80;;;;;;;;;;5017708;28;20033;-74
2023/07/03 10:43:09;;;;;;;4.15;0.82;;;;;;;;;;5018329;28;20048;-75
2023/07/03 10:45:37;;;;;;;4.07;0.90;;;;;;;;;;5020175;28;20412;-75
2023/07/03 10:48:06;;;;;;;4.28;1.20;;;;;;;;;;5018702;28;20396;-75
2023/07/03 10:51:00;;;;;;;1.27;0.70;;;;;;;;;;5031796;28;20087;-75
2023/07/03 10:53:36;;;;;;;4.60;0.82;;;;;;;;;;4992988;28;20046;-75
2023/07/03 10:56:07;;;;;;;2.10;0.82;;;;;;;;;;4993407;28;20035;-75
2023/07/03 10:58:42;;;;;;;7.97;1.05;;;;;;;;;;5007409;28;20094;-75
2023/07/03 11:01:13;;;;;;;6.25;1.10;;;;;;;;;;5003568;28;20060;-75
2023/07/03 11:03:48;;;;;;;3.53;0.93;;;;;;;;;;5022745;28;20088;-75
2023/07/03 11:06:19;;;;;;;2.50;0.68;;;;;;;;;;5014460;28;20065;-75
2023/07/03 11:08:55;;;;;;;4.80;0.90;;;;;;;;;;5032059;28;20033;-75
2023/07/03 11:11:34;;;;;;;3.92;0.80;;;;;;;;;;5012585;28;20030;-75
2023/07/03 11:14:06;;;;;;;3.47;1.00;;;;;;;;;;5013514;28;20114;-75
2023/07/03 11:17:11;;;;;;;6.82;1.15;;;;;;;;;;5005755;28;20021;-75
2023/07/03 11:19:41;;;;;;;4.07;0.90;;;;;;;;;;5000402;28;20377;-75
2023/07/03 11:22:17;;;;;;;4.45;1.00;;;;;;;;;;5017386;28;20038;-75
2023/07/03 11:24:49;;;;;;;5.10;1.08;;;;;;;;;;5022111;28;20018;-75
2023/07/03 11:27:33;;;;;;;4.65;1.08;;;;;;;;;;4997556;28;20117;-75
2023/07/03 11:30:00;;;;;;;3.05;0.93;;;;;;;;;;4999346;28;20030;-75
2023/07/03 11:32:26;;;;;;;7.53;1.40;;;;;;;;;;5018309;28;20021;-75
2023/07/03 11:34:53;;;;;;;4.35;0.95;;;;;;;;;;5035326;28;20025;-75
2023/07/03 11:37:33;;;;;;;3.85;0.80;;;;;;;;;;5008862;28;20062;-75
2023/07/03 11:40:18;;;;;;;4.20;0.80;;;;;;;;;;5010689;28;20734;-75
2023/07/03 11:42:44;;;;;;;3.67;0.98;;;;;;;;;;5004553;28;20370;-75
2023/07/03 11:45:24;;;;;;;2.83;0.70;;;;;;;;;;4995771;28;20027;-75
2023/07/03 11:47:52;;;;;;;5.68;0.85;;;;;;;;;;5008536;28;20033;-75
2023/07/03 11:50:26;;;;;;;3.05;0.80;;;;;;;;;;5015120;28;20026;-75
2023/07/03 11:52:53;;;;;;;5.90;1.00;;;;;;;;;;5028136;28;20045;-75
2023/07/03 11:55:21;;;;;;;3.75;0.70;;;;;;;;;;5021450;28;20031;-75
2023/07/03 11:57:51;;;;;;;2.65;0.77;;;;;;;;;;5020463;28;20028;-75
2023/07/03 12:00:26;;;;;;;3.92;0.95;;;;;;;;;;5023673;28;20053;-75
2023/07/03 12:02:54;;;;;;;4.18;1.20;;;;;;;;;;5031108;28;20457;-75
2023/07/03 12:05:39;;;;;;;6.50;1.25;;;;;;;;;;5015119;28;20034;-75
2023/07/03 12:08:10;;;;;;;3.72;1.00;;;;;;;;;;5014963;28;20114;-75
2023/07/03 12:10:36;;;;;;;6.35;1.05;;;;;;;;;;5015058;28;20030;-75
2023/07/03 12:13:21;;;;;;;2.83;1.02;;;;;;;;;;5034720;28;20365;-75
2023/07/03 12:15:55;;;;;;;4.00;0.95;;;;;;;;;;5020115;28;20523;-75
2023/07/03 12:18:21;;;;;;;2.88;0.93;;;;;;;;;;5014831;28;20116;-75
2023/07/03 12:20:47;;;;;;;5.05;1.17;;;;;;;;;;5030478;28;20025;-75
2023/07/03 12:23:30;;;;;;;6.20;1.02;;;;;;;;;;5012382;28;20098;-75
2023/07/03 12:26:09;;;;;;;5.40;1.20;;;;;;;;;;5031738;28;20029;-75
2023/07/03 12:28:35;;;;;;;5.30;0.98;;;;;;;;;;5032417;28;20030;-75
2023/07/03 12:31:11;;;;;;;3.85;0.73;;;;;;;;;;5023099;28;20026;-75
2023/07/03 12:33:47;;;;;;;5.78;0.80;;;;;;;;;;5033778;28;20464;-75
2023/07/03 12:36:19;;;;;;;4.15;0.57;;;;;;;;;;5014528;28;20468;-75
2023/07/03 12:38:45;;;;;;;3.28;0.70;;;;;;;;;;5027404;28;20092;-75
2023/07/03 12:41:11;;;;;;;4.32;0.80;;;;;;;;;;5026436;28;20504;-75
2023/07/03 12:43:37;;;;;;;5.28;1.27;;;;;;;;;;5030696;28;20045;-75
2023/07/03 12:46:04;;;;;;;2.47;0.85;;;;;;;;;;5012537;28;20073;-75
2023/07/03 12:48:29;;;;;;;3.67;0.70;;;;;;;;;;5018883;28;20034;-75
2023/07/03 12:50:56;;;;;;;3.88;0.85;;;;;;;;;;5033780;28;20036;-75
2023/07/03 12:53:23;;;;;;;3.13;1.00;;;;;;;;;;5020463;28;20025;-75
2023/07/03 12:55:51;;;;;;;2.55;0.70;;;;;;;;;;5022859;28;20346;-75
2023/07/03 12:58:18;;;;;;;3.78;0.90;;;;;;;;;;5017386;28;20049;-75
2023/07/03 13:00:44;;;;;;;2.72;0.65;;;;;;;;;;5033465;28;20045;-75
2023/07/03 13:03:15;;;;;;;1.65;0.60;;;;;;;;;;5033678;28;20020;-75
2023/07/03 13:05:41;;;;;;;5.28;1.00;;;;;;;;;;5033581;28;20460;-75
2023/07/03 13:08:15;;;;;;;5.80;1.00;;;;;;;;;;5020005;28;20083;-75
2023/07/03 13:10:56;;;;;;;4.85;0.88;;;;;;;;;;5032979;28;20033;-75
2023/07/03 13:13:22;;;;;;;5.65;0.82;;;;;;;;;;5013765;28;20036;-75
2023/07/03 13:15:48;;;;;;;2.22;0.60;;;;;;;;;;5014141;28;20018;-75
2023/07/03 13:18:15;;;;;;;3.42;1.02;;;;;;;;;;5022641;28;20076;-75
2023/07/03 13:20:53;;;;;;;4.07;1.15;;;;;;;;;;5032018;28;20032;-75
2023/07/03 13:23:26;;;;;;;2.72;0.80;;;;;;;;;;5033054;28;20079;-74
2023/07/03 13:25:53;;;;;;;5.57;0.80;;;;;;;;;;5013928;28;20053;-75
2023/07/03 13:28:23;;;;;;;4.00;0.90;;;;;;;;;;5013433;28;20034;-74
2023/07/03 13:30:49;;;;;;;;;;;;;;;;;;5008892;28;20041;-74
2023/07/03 13:33:27;;;;;;;2.55;0.70;;;;;;;;;;5018245;28;19972;-74
2023/07/03 13:35:54;;;;;;;3.00;0.75;;;;;;;;;;5015933;28;20080;-74
2023/07/03 13:38:23;;;;;;;3.63;0.95;;;;;;;;;;5019657;28;20465;-74
2023/07/03 13:40:52;;;;;;;5.85;1.15;;;;;;;;;;5018479;28;20072;-74
2023/07/03 13:43:20;;;;;;;;;;;;;;;;;;5026023;28;20104;-74
2023/07/03 13:45:46;;;;;;;6.32;1.20;;;;;;;;;;5032631;28;19999;-74
2023/07/03 13:48:12;;;;;;;5.97;1.25;;;;;;;;;;5019224;28;20041;-75
2023/07/03 13:50:38;;;;;;;5.00;1.30;;;;;;;;;;5032784;28;20163;-74
2023/07/03 13:53:05;;;;;;;2.85;0.90;;;;;;;;;;5019381;28;20087;-74
2023/07/03 13:55:31;;;;;;;4.10;1.25;;;;;;;;;;5032568;28;20479;-75
2023/07/03 13:57:57;;;;;;;4.28;1.00;;;;;;;;;;5018003;28;20466;-74
2023/07/03 14:00:23;;;;;;;4.88;1.30;;;;;;;;;;5023975;28;20045;-74
2023/07/03 14:02:49;;;;;;;5.40;1.23;;;;;;;;;;5015361;28;20066;-75
2023/07/03 14:05:15;;;;;;;5.78;1.40;;;;;;;;;;5023877;28;20108;-75
2023/07/03 14:07:41;;;;;;;4.78;1.25;;;;;;;;;;5002576;28;20044;-75
2023/07/03 14:10:08;;;;;;;4.63;1.30;;;;;;;;;;5022964;28;20030;-74
2023/07/03 14:12:34;;;;;;;6.65;1.30;;;;;;;;;;5013008;28;20014;-74
2023/07/03 14:15:00;;;;;;;4.30;1.40;;;;;;;;;;5012910;28;20029;-75
2023/07/03 14:17:26;;;;;;;5.88;1.98;;;;;;;;;;5022335;28;20368;-75
2023/07/03 14:19:52;;;;;;;5.20;1.70;;;;;;;;;;5019813;28;20041;-75
2023/07/03 14:22:18;;;;;;;7.05;1.38;;;;;;;;;;5024670;28;20107;-75
2023/07/03 14:24:44;;;;;;;7.88;1.40;;;;;;;;;;5012668;28;20468;-74
2023/07/03 14:27:10;;;;;;;7.07;1.92;;;;;;;;;;4995304;28;20030;-75
2023/07/03 14:29:36;;;;;;;4.93;1.60;;;;;;;;;;5011961;28;20385;-75
2023/07/03 14:32:05;;;;;;;6.75;1.40;;;;;;;;;;5029835;28;20490;-75
2023/07/03 14:34:31;;;;;;;7.50;1.63;;;;;;;;;;5020482;28;20029;-75
2023/07/03 14:37:03;;;;;;;4.90;1.38;;;;;;;;;;5031992;28;20022;-74
2023/07/03 14:39:29;;;;;;;4.07;1.17;;;;;;;;;;5020212;28;20029;-74
2023/07/03 14:42:02;;;;;;;4.07;1.02;;;;;;;;;;4992980;28;20022;-74
2023/07/03 14:44:28;;;;;;;5.93;1.52;;;;;;;;;;5020316;28;20476;-74
2023/07/03 14:46:54;;;;;;;5.13;1.30;;;;;;;;;;5017761;28;20049;-74
2023/07/03 14:49:20;;;;;;;3.60;1.30;;;;;;;;;;5030708;28;20404;-74